createdAt,value
2016-03-15T00:00:10.589Z,71.23
2016-03-15T00:01:10.623Z,71.23
2016-03-15T00:02:10.625Z,71.23
2016-03-15T00:03:10.628Z,71.23
2016-03-15T00:04:10.646Z,71.33
2016-03-15T00:05:10.650Z,71.61
2016-03-15T00:06:10.667Z,71.33
2016-03-15T00:07:10.691Z,70.95
2016-03-15T00:08:10.693Z,71.52
2016-03-15T00:09:10.712Z,71.52
2016-03-15T00:10:10.715Z,71.52
2016-03-15T00:11:10.732Z,71.52
2016-03-15T00:12:10.736Z,71.61
2016-03-15T00:13:10.769Z,71.52
2016-03-15T00:14:10.772Z,71.71
2016-03-15T00:15:10.774Z,71.52
2016-03-15T00:16:10.793Z,71.33
2016-03-15T00:17:10.796Z,71.8
2016-03-15T00:18:10.815Z,71.8
2016-03-15T00:19:10.832Z,71.8
2016-03-15T00:20:10.851Z,71.61
2016-03-15T00:21:10.853Z,71.9
2016-03-15T00:22:10.887Z,71.61
2016-03-15T00:23:10.875Z,71.9
2016-03-15T00:24:10.892Z,71.8
2016-03-15T00:25:10.896Z,71.71
2016-03-15T00:26:10.929Z,71.61
2016-03-15T00:27:10.931Z,71.9
2016-03-15T00:28:10.950Z,72.37
2016-03-15T00:29:10.953Z,71.61
2016-03-15T00:30:10.956Z,71.9
2016-03-15T00:31:10.975Z,72.37
2016-03-15T00:32:10.852Z,72.18
2016-03-15T00:33:10.995Z,72.56
2016-03-15T00:34:11.014Z,72.37
2016-03-15T00:35:11.032Z,72.37
2016-03-15T00:36:11.035Z,72.56
2016-03-15T00:37:11.054Z,72.56
2016-03-15T00:38:11.056Z,72.85
2016-03-15T00:39:11.090Z,72.85
2016-03-15T00:40:11.077Z,72.94
2016-03-15T00:41:11.095Z,72.85
2016-03-15T00:42:11.098Z,72.75
2016-03-15T00:43:11.117Z,72.94
2016-03-15T00:44:11.151Z,72.75
2016-03-15T00:45:11.153Z,72.85
2016-03-15T00:46:11.156Z,72.94
2016-03-15T00:47:11.158Z,73.03
2016-03-15T00:48:11.177Z,73.5
2016-03-15T00:49:11.194Z,73.41
2016-03-15T00:50:11.214Z,73.41
2016-03-15T00:51:11.217Z,73.22
2016-03-15T00:52:11.235Z,73.79
2016-03-15T00:53:11.238Z,73.6
2016-03-15T00:54:11.255Z,73.79
2016-03-15T00:55:11.258Z,73.98
2016-03-15T00:56:11.293Z,73.88
2016-03-15T00:57:11.285Z,73.98
2016-03-15T00:58:11.303Z,73.6
2016-03-15T00:59:11.321Z,73.69
2016-03-15T01:00:11.323Z,73.88
2016-03-15T01:01:11.342Z,73.79
2016-03-15T01:02:11.359Z,73.88
2016-03-15T01:03:11.363Z,73.98
2016-03-15T01:04:11.381Z,73.6
2016-03-15T01:05:11.384Z,73.69
2016-03-15T01:06:11.386Z,73.79
2016-03-15T01:07:11.405Z,73.69
2016-03-15T01:08:11.423Z,73.79
2016-03-15T01:09:11.426Z,73.6
2016-03-15T01:10:11.444Z,73.5
2016-03-15T01:11:11.447Z,73.5
2016-03-15T01:12:11.481Z,73.5
2016-03-15T01:13:11.483Z,73.79
2016-03-15T01:14:11.486Z,73.79
2016-03-15T01:15:11.505Z,73.98
2016-03-15T01:16:11.538Z,73.6
2016-03-15T01:17:11.557Z,73.5
2016-03-15T01:18:11.544Z,74.17
2016-03-15T01:19:11.562Z,73.88
2016-03-15T01:20:11.565Z,73.69
2016-03-15T01:21:11.583Z,73.79
2016-03-15T01:22:11.586Z,73.88
2016-03-15T01:23:11.588Z,73.79
2016-03-15T01:24:11.623Z,73.6
2016-03-15T01:25:11.626Z,73.69
2016-03-15T01:26:11.674Z,73.88
2016-03-15T01:27:11.646Z,74.36
2016-03-15T01:28:11.665Z,74.36
2016-03-15T01:29:11.667Z,74.26
2016-03-15T01:30:11.685Z,74.07
2016-03-15T01:31:11.688Z,74.45
2016-03-15T01:32:11.706Z,74.26
2016-03-15T01:33:11.709Z,74.36
2016-03-15T01:34:11.712Z,74.6
2016-03-15T01:35:11.730Z,74.93
2016-03-15T01:36:11.734Z,74.17
2016-03-15T01:37:11.767Z,74.45
2016-03-15T01:38:11.753Z,74.13
2016-03-15T01:39:11.773Z,74.22
2016-03-15T01:40:11.775Z,74.36
2016-03-15T01:41:11.808Z,74.22
2016-03-15T01:42:11.812Z,74.64
2016-03-15T01:43:11.814Z,74.74
2016-03-15T01:44:11.848Z,75.26
2016-03-15T01:45:11.850Z,74.98
2016-03-15T01:46:11.713Z,74.83
2016-03-15T01:47:11.871Z,74.74
2016-03-15T01:48:11.875Z,75.12
2016-03-15T01:49:11.908Z,74.55
2016-03-15T01:50:11.910Z,74.74
2016-03-15T01:51:11.930Z,75.49
2016-03-15T01:52:11.932Z,74.83
2016-03-15T01:53:11.951Z,75.31
2016-03-15T01:54:11.969Z,75.12
2016-03-15T01:55:11.971Z,75.31
2016-03-15T01:56:11.974Z,75.21
2016-03-15T01:57:11.993Z,75.21
2016-03-15T01:58:12.010Z,74.83
2016-03-15T01:59:12.029Z,75.59
2016-03-15T02:00:12.032Z,75.59
2016-03-15T02:01:12.035Z,75.68
2016-03-15T02:02:12.053Z,75.78
2016-03-15T02:03:12.055Z,75.68
2016-03-15T02:04:12.074Z,75.49
2016-03-15T02:05:12.092Z,75.59
2016-03-15T02:06:12.111Z,75.4
2016-03-15T02:07:12.113Z,75.59
2016-03-15T02:08:12.131Z,75.49
2016-03-15T02:09:12.150Z,75.49
2016-03-15T02:10:12.137Z,75.4
2016-03-15T02:11:12.155Z,75.31
2016-03-15T02:12:12.173Z,75.59
2016-03-15T02:13:12.176Z,75.4
2016-03-15T02:14:12.194Z,75.68
2016-03-15T02:15:12.213Z,75.68
2016-03-15T02:16:12.216Z,75.96
2016-03-15T02:17:12.296Z,76.06
2016-03-15T02:18:12.236Z,76.15
2016-03-15T02:19:12.255Z,75.96
2016-03-15T02:20:12.289Z,75.96
2016-03-15T02:21:12.277Z,76.15
2016-03-15T02:22:12.279Z,76.34
2016-03-15T02:23:12.297Z,76.15
2016-03-15T02:24:12.299Z,75.78
2016-03-15T02:25:12.333Z,76.25
2016-03-15T02:26:12.336Z,75.78
2016-03-15T02:27:12.338Z,75.68
2016-03-15T02:28:12.357Z,75.87
2016-03-15T02:29:12.375Z,75.68
2016-03-15T02:30:12.378Z,75.78
2016-03-15T02:31:12.381Z,75.78
2016-03-15T02:32:12.414Z,75.64
2016-03-15T02:33:12.417Z,75.83
2016-03-15T02:34:12.420Z,75.96
2016-03-15T02:35:12.439Z,76.15
2016-03-15T02:36:12.442Z,76.12
2016-03-15T02:37:12.476Z,76.68
2016-03-15T02:38:12.478Z,76.34
2016-03-15T02:39:12.496Z,76.5
2016-03-15T02:40:12.514Z,76.78
2016-03-15T02:41:12.517Z,76.4
2016-03-15T02:42:12.535Z,77.01
2016-03-15T02:43:12.538Z,76.87
2016-03-15T02:44:12.541Z,76.78
2016-03-15T02:45:12.558Z,76.68
2016-03-15T02:46:12.578Z,76.59
2016-03-15T02:47:12.580Z,76.78
2016-03-15T02:48:12.599Z,76.59
2016-03-15T02:49:12.617Z,76.78
2016-03-15T02:50:12.619Z,76.68
2016-03-15T02:51:12.638Z,76.59
2016-03-15T02:52:12.640Z,76.68
2016-03-15T02:53:12.658Z,76.78
2016-03-15T02:54:12.661Z,76.68
2016-03-15T02:55:12.680Z,76.59
2016-03-15T02:56:12.699Z,76.5
2016-03-15T02:57:12.701Z,76.5
2016-03-15T02:58:12.719Z,76.68
2016-03-15T02:59:12.721Z,76.78
2016-03-15T03:00:12.740Z,76.68
2016-03-15T03:01:12.743Z,76.5
2016-03-15T03:02:12.776Z,76.31
2016-03-15T03:03:12.764Z,76.12
2016-03-15T03:04:12.781Z,76.31
2016-03-15T03:05:12.784Z,76.4
2016-03-15T03:06:12.818Z,76.31
2016-03-15T03:07:12.837Z,76.12
2016-03-15T03:08:12.839Z,76.31
2016-03-15T03:09:12.843Z,75.83
2016-03-15T03:10:12.845Z,75.74
2016-03-15T03:11:12.879Z,75.74
2016-03-15T03:12:12.881Z,75.83
2016-03-15T03:13:12.884Z,76.12
2016-03-15T03:14:12.903Z,75.74
2016-03-15T03:15:12.905Z,76.21
2016-03-15T03:16:12.924Z,76.31
2016-03-15T03:17:12.941Z,76.15
2016-03-15T03:18:12.944Z,76.5
2016-03-15T03:19:12.947Z,76.15
2016-03-15T03:20:12.980Z,75.96
2016-03-15T03:21:12.984Z,76.44
2016-03-15T03:22:13.003Z,76.31
2016-03-15T03:23:13.021Z,76.21
2016-03-15T03:24:13.008Z,76.06
2016-03-15T03:25:13.042Z,76.12
2016-03-15T03:26:13.044Z,76.34
2016-03-15T03:27:13.063Z,76.21
2016-03-15T03:28:13.065Z,76.25
2016-03-15T03:29:13.099Z,75.96
2016-03-15T03:30:13.087Z,76.53
2016-03-15T03:31:13.105Z,76.34
2016-03-15T03:32:13.123Z,76.15
2016-03-15T03:33:13.140Z,76.06
2016-03-15T03:34:13.144Z,75.78
2016-03-15T03:35:13.162Z,76.15
2016-03-15T03:36:13.149Z,76.21
2016-03-15T03:37:13.184Z,76.25
2016-03-15T03:38:13.186Z,76.44
2016-03-15T03:39:13.204Z,76.12
2016-03-15T03:40:13.207Z,76.31
2016-03-15T03:41:13.225Z,76.02
2016-03-15T03:42:13.228Z,75.74
2016-03-15T03:43:13.246Z,76.21
2016-03-15T03:44:13.264Z,76.31
2016-03-15T03:45:13.267Z,76.68
2016-03-15T03:46:13.286Z,76.5
2016-03-15T03:47:13.288Z,76.59
2016-03-15T03:48:13.322Z,76.87
2016-03-15T03:49:13.309Z,76.5
2016-03-15T03:50:13.343Z,76.5
2016-03-15T03:51:13.330Z,76.68
2016-03-15T03:52:13.349Z,76.5
2016-03-15T03:53:13.352Z,77.06
2016-03-15T03:54:13.385Z,76.78
2016-03-15T03:55:13.388Z,76.59
2016-03-15T03:56:13.390Z,76.4
2016-03-15T03:57:13.410Z,76.4
2016-03-15T03:58:13.412Z,76.12
2016-03-15T03:59:13.429Z,76.4
2016-03-15T04:00:13.449Z,76.78
2016-03-15T04:01:13.451Z,76.31
2016-03-15T04:02:13.485Z,76.21
2016-03-15T04:03:13.519Z,76.53
2016-03-15T04:04:13.506Z,76.78
2016-03-15T04:05:13.509Z,76.59
2016-03-15T04:06:13.511Z,76.63
2016-03-15T04:07:13.514Z,76.63
2016-03-15T04:08:13.531Z,76.68
2016-03-15T04:09:13.551Z,76.59
2016-03-15T04:10:13.553Z,76.72
2016-03-15T04:11:13.572Z,76.34
2016-03-15T04:12:13.575Z,76.25
2016-03-15T04:13:13.592Z,76.63
2016-03-15T04:14:13.611Z,76.63
2016-03-15T04:15:13.629Z,76.15
2016-03-15T04:16:13.647Z,76.15
2016-03-15T04:17:13.634Z,75.78
2016-03-15T04:18:13.669Z,75.87
2016-03-15T04:19:13.671Z,76.06
2016-03-15T04:20:13.675Z,76.06
2016-03-15T04:21:13.682Z,76.15
2016-03-15T04:22:13.715Z,75.96
2016-03-15T04:23:13.718Z,76.15
2016-03-15T04:24:13.721Z,75.78
2016-03-15T04:25:13.739Z,75.87
2016-03-15T04:26:13.757Z,75.4
2016-03-15T04:27:13.760Z,75.49
2016-03-15T04:28:13.778Z,75.78
2016-03-15T04:29:13.782Z,75.59
2016-03-15T04:30:13.784Z,75.59
2016-03-15T04:31:13.817Z,75.49
2016-03-15T04:32:13.821Z,75.4
2016-03-15T04:33:13.839Z,75.59
2016-03-15T04:34:13.842Z,75.59
2016-03-15T04:35:13.864Z,75.31
2016-03-15T04:36:13.866Z,75.12
2016-03-15T04:37:13.884Z,75.02
2016-03-15T04:38:13.903Z,75.21
2016-03-15T04:39:13.905Z,75.31
2016-03-15T04:40:13.924Z,74.74
2016-03-15T04:41:13.927Z,75.12
2016-03-15T04:42:13.945Z,74.64
2016-03-15T04:43:13.963Z,74.26
2016-03-15T04:44:13.966Z,74.55
2016-03-15T04:45:13.968Z,74.36
2016-03-15T04:46:13.987Z,74.55
2016-03-15T04:47:14.005Z,75.31
2016-03-15T04:48:14.007Z,74.64
2016-03-15T04:49:14.011Z,74.55
2016-03-15T04:50:14.029Z,74.55
2016-03-15T04:51:14.047Z,74.36
2016-03-15T04:52:14.066Z,74.64
2016-03-15T04:53:14.084Z,74.55
2016-03-15T04:54:14.070Z,75.21
2016-03-15T04:55:14.089Z,74.74
2016-03-15T04:56:14.108Z,74.45
2016-03-15T04:57:14.125Z,74.87
2016-03-15T04:58:14.145Z,74.64
2016-03-15T04:59:14.147Z,74.55
2016-03-15T05:00:14.149Z,74.64
2016-03-15T05:01:14.184Z,75.12
2016-03-15T05:02:14.186Z,74.55
2016-03-15T05:03:14.204Z,75.02
2016-03-15T05:04:14.192Z,74.55
2016-03-15T05:05:14.210Z,74.64
2016-03-15T05:06:14.228Z,74.83
2016-03-15T05:07:14.091Z,74.55
2016-03-15T05:08:14.249Z,74.64
2016-03-15T05:09:14.268Z,74.87
2016-03-15T05:10:14.286Z,74.45
2016-03-15T05:11:14.288Z,74.3
2016-03-15T05:12:14.307Z,74.3
2016-03-15T05:13:14.310Z,74.49
2016-03-15T05:14:14.343Z,74.49
2016-03-15T05:15:14.346Z,74.4
2016-03-15T05:16:14.349Z,74.3
2016-03-15T05:17:14.367Z,74.21
2016-03-15T05:18:14.370Z,74.11
2016-03-15T05:19:14.388Z,74.49
2016-03-15T05:20:14.406Z,73.73
2016-03-15T05:21:14.409Z,74.02
2016-03-15T05:22:14.412Z,73.73
2016-03-15T05:23:14.461Z,73.73
2016-03-15T05:24:14.449Z,74.02
2016-03-15T05:25:14.451Z,74.02
2016-03-15T05:26:14.469Z,73.83
2016-03-15T05:27:14.504Z,74.02
2016-03-15T05:28:14.334Z,74.02
2016-03-15T05:29:14.509Z,73.92
2016-03-15T05:30:14.527Z,73.73
2016-03-15T05:31:14.545Z,73.83
2016-03-15T05:32:14.548Z,73.64
2016-03-15T05:33:14.551Z,74.3
2016-03-15T05:34:14.569Z,74.49
2016-03-15T05:35:14.603Z,74.3
2016-03-15T05:36:14.591Z,74.87
2016-03-15T05:37:14.608Z,74.96
2016-03-15T05:38:14.611Z,74.68
2016-03-15T05:39:14.629Z,74.3
2016-03-15T05:40:14.632Z,74.58
2016-03-15T05:41:14.650Z,74.68
2016-03-15T05:42:14.669Z,74.68
2016-03-15T05:43:14.687Z,74.3
2016-03-15T05:44:14.690Z,74.11
2016-03-15T05:45:14.724Z,74.49
2016-03-15T05:46:14.710Z,74.11
2016-03-15T05:47:14.745Z,74.21
2016-03-15T05:48:14.747Z,74.4
2016-03-15T05:49:14.766Z,73.92
2016-03-15T05:50:14.768Z,73.54
2016-03-15T05:51:14.771Z,73.92
2016-03-15T05:52:14.790Z,74.21
2016-03-15T05:53:14.807Z,74.11
2016-03-15T05:54:14.810Z,73.92
2016-03-15T05:55:14.845Z,73.83
2016-03-15T05:56:14.862Z,73.54
2016-03-15T05:57:14.850Z,73.92
2016-03-15T05:58:14.868Z,73.64
2016-03-15T05:59:14.886Z,74.4
2016-03-15T06:00:14.889Z,74.3
2016-03-15T06:01:14.908Z,73.64
2016-03-15T06:02:14.910Z,73.92
2016-03-15T06:03:14.928Z,73.83
2016-03-15T06:04:14.931Z,73.45
2016-03-15T06:05:14.949Z,73.16
2016-03-15T06:06:14.967Z,72.97
2016-03-15T06:07:14.964Z,72.97
2016-03-15T06:08:14.967Z,72.6
2016-03-15T06:09:14.971Z,72.97
2016-03-15T06:10:14.958Z,72.5
2016-03-15T06:11:14.960Z,72.78
2016-03-15T06:12:14.968Z,72.97
2016-03-15T06:13:14.996Z,72.97
2016-03-15T06:14:14.978Z,72.88
2016-03-15T06:15:14.975Z,73.07
2016-03-15T06:16:14.987Z,72.88
2016-03-15T06:17:15.003Z,73.26
2016-03-15T06:18:15.003Z,73.35
2016-03-15T06:19:15.018Z,73.73
2016-03-15T06:20:15.018Z,73.64
2016-03-15T06:21:15.051Z,73.92
2016-03-15T06:22:15.052Z,73.73
2016-03-15T06:23:15.068Z,74.4
2016-03-15T06:24:15.087Z,74.49
2016-03-15T06:25:15.088Z,74.68
2016-03-15T06:26:15.090Z,74.58
2016-03-15T06:27:15.109Z,74.87
2016-03-15T06:28:15.126Z,74.68
2016-03-15T06:29:15.145Z,74.58
2016-03-15T06:30:15.163Z,74.68
2016-03-15T06:31:15.165Z,75.05
2016-03-15T06:32:15.168Z,74.87
2016-03-15T06:33:15.203Z,74.77
2016-03-15T06:34:15.205Z,75.43
2016-03-15T06:35:15.193Z,75.43
2016-03-15T06:36:15.211Z,75.24
2016-03-15T06:37:15.261Z,75.24
2016-03-15T06:38:15.247Z,75.24
2016-03-15T06:39:15.250Z,74.96
2016-03-15T06:40:15.252Z,74.96
2016-03-15T06:41:15.286Z,74.87
2016-03-15T06:42:15.305Z,75.15
2016-03-15T06:43:15.322Z,74.96
2016-03-15T06:44:15.311Z,75.05
2016-03-15T06:45:15.344Z,74.87
2016-03-15T06:46:15.347Z,75.24
2016-03-15T06:47:15.349Z,75.24
2016-03-15T06:48:15.368Z,75.15
2016-03-15T06:49:15.386Z,75.53
2016-03-15T06:50:15.388Z,75.72
2016-03-15T06:51:15.407Z,75.24
2016-03-15T06:52:15.425Z,75.34
2016-03-15T06:53:15.428Z,75.34
2016-03-15T06:54:15.446Z,75.05
2016-03-15T06:55:15.449Z,75.05
2016-03-15T06:56:15.467Z,75.09
2016-03-15T06:57:15.485Z,75.34
2016-03-15T06:58:15.504Z,75.24
2016-03-15T06:59:15.506Z,74.96
2016-03-15T07:00:15.525Z,75.05
2016-03-15T07:01:15.528Z,75.62
2016-03-15T07:02:15.546Z,74.96
2016-03-15T07:03:15.549Z,75.05
2016-03-15T07:04:15.567Z,75.38
2016-03-15T07:05:15.586Z,75.72
2016-03-15T07:06:15.620Z,75.53
2016-03-15T07:07:15.606Z,75.43
2016-03-15T07:08:15.629Z,75.53
2016-03-15T07:09:15.632Z,75.62
2016-03-15T07:10:15.649Z,75.38
2016-03-15T07:11:15.668Z,75.09
2016-03-15T07:12:15.671Z,75.28
2016-03-15T07:13:15.689Z,75.19
2016-03-15T07:14:15.692Z,75.19
2016-03-15T07:15:15.710Z,75.19
2016-03-15T07:16:15.713Z,75.19
2016-03-15T07:17:15.746Z,75.09
2016-03-15T07:18:15.749Z,75.28
2016-03-15T07:19:15.768Z,75.09
2016-03-15T07:20:15.786Z,75.38
2016-03-15T07:21:15.773Z,75.28
2016-03-15T07:22:15.806Z,75.38
2016-03-15T07:23:15.794Z,75.66
2016-03-15T07:24:15.812Z,76.23
2016-03-15T07:25:15.831Z,76.32
2016-03-15T07:26:15.833Z,76.32
2016-03-15T07:27:15.867Z,76.23
2016-03-15T07:28:15.870Z,76.23
2016-03-15T07:29:15.872Z,76.32
2016-03-15T07:30:15.891Z,76.7
2016-03-15T07:31:15.894Z,76.89
2016-03-15T07:32:15.911Z,77.27
2016-03-15T07:33:15.930Z,77.37
2016-03-15T07:34:15.949Z,77.27
2016-03-15T07:35:15.951Z,77.56
2016-03-15T07:36:15.970Z,77.46
2016-03-15T07:37:15.972Z,77.56
2016-03-15T07:38:16.006Z,78.41
2016-03-15T07:39:16.010Z,79.74
2016-03-15T07:40:16.027Z,80.11
2016-03-15T07:41:16.029Z,80.49
2016-03-15T07:42:16.048Z,79.93
2016-03-15T07:43:16.051Z,80.02
2016-03-15T07:44:16.068Z,80.3
2016-03-15T07:45:16.088Z,80.11
2016-03-15T07:46:16.090Z,79.93
2016-03-15T07:47:16.108Z,80.21
2016-03-15T07:48:16.127Z,80.3
2016-03-15T07:49:16.129Z,79.93
2016-03-15T07:50:16.148Z,80.02
2016-03-15T07:51:16.150Z,79.83
2016-03-15T07:52:16.153Z,79.74
2016-03-15T07:53:16.203Z,79.93
2016-03-15T07:54:16.190Z,81.06
2016-03-15T07:55:16.208Z,81.25
2016-03-15T07:56:16.211Z,81.82
2016-03-15T07:57:16.228Z,81.53
2016-03-15T07:58:16.247Z,81.15
2016-03-15T07:59:16.266Z,81.34
2016-03-15T08:00:16.268Z,80.96
2016-03-15T08:01:16.287Z,80.4
2016-03-15T08:02:16.305Z,79.93
2016-03-15T08:03:16.324Z,80.4
2016-03-15T08:04:16.310Z,80.3
2016-03-15T08:05:16.329Z,80.4
2016-03-15T08:06:16.347Z,80.58
2016-03-15T08:07:16.365Z,81.34
2016-03-15T08:08:16.368Z,81.44
2016-03-15T08:09:16.385Z,81.34
2016-03-15T08:10:16.389Z,81.48
2016-03-15T08:11:16.407Z,81.15
2016-03-15T08:12:16.441Z,81.06
2016-03-15T08:13:16.444Z,81.86
2016-03-15T08:14:16.446Z,81.76
2016-03-15T08:15:16.465Z,81.48
2016-03-15T08:16:16.484Z,81.95
2016-03-15T08:17:16.501Z,81.95
2016-03-15T08:18:16.504Z,82.14
2016-03-15T08:19:16.507Z,82.43
2016-03-15T08:20:16.525Z,82.14
2016-03-15T08:21:16.544Z,82.05
2016-03-15T08:22:16.546Z,83
2016-03-15T08:23:16.565Z,82.43
2016-03-15T08:24:16.584Z,82.62
2016-03-15T08:25:16.586Z,82.52
2016-03-15T08:26:16.603Z,82.43
2016-03-15T08:27:16.606Z,82.71
2016-03-15T08:28:16.625Z,82.52
2016-03-15T08:29:16.643Z,82.14
2016-03-15T08:30:16.647Z,82.14
2016-03-15T08:31:16.664Z,82.43
2016-03-15T08:32:16.682Z,82.33
2016-03-15T08:33:16.701Z,82.43
2016-03-15T08:34:16.703Z,82.14
2016-03-15T08:35:16.705Z,82.14
2016-03-15T08:36:16.725Z,82.24
2016-03-15T08:37:16.743Z,82.14
2016-03-15T08:38:16.761Z,82.47
2016-03-15T08:39:16.780Z,82.28
2016-03-15T08:40:16.782Z,82.9
2016-03-15T08:41:16.801Z,83.28
2016-03-15T08:42:16.819Z,83.28
2016-03-15T08:43:16.821Z,83.47
2016-03-15T08:44:16.887Z,84.13
2016-03-15T08:45:16.858Z,84.23
2016-03-15T08:46:16.860Z,84.32
2016-03-15T08:47:16.879Z,84.42
2016-03-15T08:48:16.929Z,84.8
2016-03-15T08:49:16.901Z,84.61
2016-03-15T08:50:16.919Z,84.32
2016-03-15T08:51:16.953Z,84.42
2016-03-15T08:52:16.939Z,83.94
2016-03-15T08:53:16.958Z,84.61
2016-03-15T08:54:16.976Z,84.32
2016-03-15T08:55:16.978Z,84.51
2016-03-15T08:56:16.998Z,84.04
2016-03-15T08:57:17.000Z,83.66
2016-03-15T08:58:17.017Z,83.56
2016-03-15T08:59:17.036Z,83.09
2016-03-15T09:00:17.039Z,82.33
2016-03-15T09:01:17.058Z,82.75
2016-03-15T09:02:17.075Z,82.56
2016-03-15T09:03:17.094Z,82.37
2016-03-15T09:04:17.097Z,82.37
2016-03-15T09:05:17.116Z,82.47
2016-03-15T09:06:17.133Z,82.56
2016-03-15T09:07:17.136Z,82.09
2016-03-15T09:08:17.155Z,81.99
2016-03-15T09:09:17.172Z,82.18
2016-03-15T09:10:17.190Z,81.52
2016-03-15T09:11:17.194Z,81.62
2016-03-15T09:12:17.212Z,81.05
2016-03-15T09:13:17.215Z,81.33
2016-03-15T09:14:17.233Z,81.52
2016-03-15T09:15:17.251Z,80.86
2016-03-15T09:16:17.270Z,81.33
2016-03-15T09:17:17.288Z,81.81
2016-03-15T09:18:17.290Z,82.37
2016-03-15T09:19:17.309Z,83.13
2016-03-15T09:20:17.327Z,83.23
2016-03-15T09:21:17.329Z,83.7
2016-03-15T09:22:17.349Z,84.08
2016-03-15T09:23:17.351Z,83.89
2016-03-15T09:24:17.369Z,84.46
2016-03-15T09:25:17.373Z,84.74
2016-03-15T09:26:17.406Z,84.84
2016-03-15T09:27:17.408Z,84.89
2016-03-15T09:28:17.411Z,85.5
2016-03-15T09:29:17.430Z,85.55
2016-03-15T09:30:17.447Z,85.74
2016-03-15T09:31:17.467Z,85.93
2016-03-15T09:32:17.469Z,86.31
2016-03-15T09:33:17.486Z,86.12
2016-03-15T09:34:17.506Z,86.31
2016-03-15T09:35:17.524Z,86.5
2016-03-15T09:36:17.541Z,86.12
2016-03-15T09:37:17.530Z,85.84
2016-03-15T09:38:17.563Z,85.31
2016-03-15T09:39:17.566Z,85.22
2016-03-15T09:40:17.585Z,85.03
2016-03-15T09:41:17.602Z,84.74
2016-03-15T09:42:17.621Z,84.84
2016-03-15T09:43:17.639Z,84.65
2016-03-15T09:44:17.626Z,84.74
2016-03-15T09:45:17.644Z,84.84
2016-03-15T09:46:17.662Z,85.55
2016-03-15T09:47:17.666Z,86.12
2016-03-15T09:48:17.684Z,85.93
2016-03-15T09:49:17.701Z,85.84
2016-03-15T09:50:17.705Z,86.41
2016-03-15T09:51:17.723Z,86.12
2016-03-15T09:52:17.741Z,86.31
2016-03-15T09:53:17.745Z,86.64
2016-03-15T09:54:17.778Z,86.5
2016-03-15T09:55:17.781Z,86.26
2016-03-15T09:56:17.799Z,85.97
2016-03-15T09:57:17.848Z,86.64
2016-03-15T09:58:17.851Z,86.93
2016-03-15T09:59:17.854Z,87.07
2016-03-15T10:00:17.841Z,86.88
2016-03-15T10:01:17.875Z,87.07
2016-03-15T10:02:17.878Z,86.79
2016-03-15T10:03:17.880Z,87.21
2016-03-15T10:04:17.914Z,86.69
2016-03-15T10:05:17.917Z,86.74
2016-03-15T10:06:17.935Z,86.55
2016-03-15T10:07:17.953Z,86.45
2016-03-15T10:08:18.003Z,86.64
2016-03-15T10:09:18.026Z,86.16
2016-03-15T10:10:17.998Z,86.45
2016-03-15T10:11:17.985Z,86.16
2016-03-15T10:12:18.004Z,86.45
2016-03-15T10:13:18.021Z,86.55
2016-03-15T10:14:18.071Z,86.45
2016-03-15T10:15:18.043Z,85.97
2016-03-15T10:16:18.060Z,85.88
2016-03-15T10:17:18.063Z,85.97
2016-03-15T10:18:18.082Z,85.22
2016-03-15T10:19:18.100Z,85.22
2016-03-15T10:20:18.103Z,85.41
2016-03-15T10:21:18.137Z,85.31
2016-03-15T10:22:18.155Z,85.41
2016-03-15T10:23:18.158Z,84.74
2016-03-15T10:24:18.192Z,84.65
2016-03-15T10:25:18.179Z,85.41
2016-03-15T10:26:18.197Z,85.5
2016-03-15T10:27:18.215Z,84.65
2016-03-15T10:28:18.218Z,85.6
2016-03-15T10:29:18.236Z,85.22
2016-03-15T10:30:18.255Z,84.65
2016-03-15T10:31:18.273Z,84.94
2016-03-15T10:32:18.275Z,84.84
2016-03-15T10:33:18.294Z,84.46
2016-03-15T10:34:18.297Z,84.65
2016-03-15T10:35:18.315Z,84.55
2016-03-15T10:36:18.318Z,84.17
2016-03-15T10:37:18.352Z,84.46
2016-03-15T10:38:18.354Z,84.27
2016-03-15T10:39:18.247Z,84.46
2016-03-15T10:40:18.375Z,84.46
2016-03-15T10:41:18.425Z,84.74
2016-03-15T10:42:18.412Z,84.36
2016-03-15T10:43:18.430Z,84.46
2016-03-15T10:44:18.449Z,84.17
2016-03-15T10:45:18.467Z,84.08
2016-03-15T10:46:18.454Z,83.89
2016-03-15T10:47:18.473Z,84.22
2016-03-15T10:48:18.490Z,83.94
2016-03-15T10:49:18.510Z,84.41
2016-03-15T10:50:18.512Z,84.41
2016-03-15T10:51:18.561Z,83.65
2016-03-15T10:52:18.564Z,83.74
2016-03-15T10:53:18.567Z,83.65
2016-03-15T10:54:18.600Z,83.27
2016-03-15T10:55:18.587Z,83.36
2016-03-15T10:56:18.606Z,83.27
2016-03-15T10:57:18.625Z,83.36
2016-03-15T10:58:18.627Z,83.27
2016-03-15T10:59:18.661Z,83.55
2016-03-15T11:00:18.664Z,83.36
2016-03-15T11:01:18.681Z,83.36
2016-03-15T11:02:18.684Z,83.17
2016-03-15T11:03:18.686Z,83.17
2016-03-15T11:04:18.706Z,83.27
2016-03-15T11:05:18.725Z,83.27
2016-03-15T11:06:18.742Z,83.17
2016-03-15T11:07:18.745Z,83.36
2016-03-15T11:08:18.763Z,83.46
2016-03-15T11:09:18.797Z,83.27
2016-03-15T11:10:18.799Z,83.27
2016-03-15T11:11:18.802Z,83.55
2016-03-15T11:12:18.805Z,83.65
2016-03-15T11:13:18.839Z,83.55
2016-03-15T11:14:18.858Z,83.36
2016-03-15T11:15:18.860Z,84.12
2016-03-15T11:16:18.878Z,84.31
2016-03-15T11:17:18.896Z,84.41
2016-03-15T11:18:18.899Z,83.84
2016-03-15T11:19:18.917Z,83.65
2016-03-15T11:20:18.921Z,83.65
2016-03-15T11:21:18.954Z,83.27
2016-03-15T11:22:18.957Z,83.36
2016-03-15T11:23:18.960Z,83.36
2016-03-15T11:24:18.978Z,83.55
2016-03-15T11:25:18.996Z,83.46
2016-03-15T11:26:19.014Z,83.46
2016-03-15T11:27:19.017Z,83.55
2016-03-15T11:28:19.036Z,83.74
2016-03-15T11:29:19.054Z,83.55
2016-03-15T11:30:19.072Z,83.17
2016-03-15T11:31:19.075Z,83.27
2016-03-15T11:32:19.094Z,83.46
2016-03-15T11:33:19.111Z,82.89
2016-03-15T11:34:19.114Z,82.7
2016-03-15T11:35:19.133Z,82.79
2016-03-15T11:36:19.150Z,82.27
2016-03-15T11:37:19.186Z,81.7
2016-03-15T11:38:19.219Z,81.23
2016-03-15T11:39:19.238Z,80.37
2016-03-15T11:40:19.194Z,79.9
2016-03-15T11:41:19.243Z,79.8
2016-03-15T11:42:19.246Z,79.8
2016-03-15T11:43:19.279Z,80.08
2016-03-15T11:44:19.266Z,79.71
2016-03-15T11:45:19.285Z,79.61
2016-03-15T11:46:19.287Z,78.8
2016-03-15T11:47:19.305Z,78.32
2016-03-15T11:48:19.324Z,78.13
2016-03-15T11:49:19.326Z,76.71
2016-03-15T11:50:19.360Z,76.61
2016-03-15T11:51:19.363Z,75.85
2016-03-15T11:52:19.381Z,74.85
2016-03-15T11:53:19.385Z,74.47
2016-03-15T11:54:19.403Z,74.85
2016-03-15T11:55:19.420Z,73.99
2016-03-15T11:56:19.424Z,74.18
2016-03-15T11:57:19.442Z,73.99
2016-03-15T11:58:19.475Z,72.99
2016-03-15T11:59:19.494Z,72.03
2016-03-15T12:00:19.497Z,71.66
2016-03-15T12:01:19.500Z,72.22
2016-03-15T12:02:19.533Z,71.94
2016-03-15T12:03:19.536Z,72.51
2016-03-15T12:04:19.555Z,72.32
2016-03-15T12:05:19.572Z,72.41
2016-03-15T12:06:19.591Z,72.13
2016-03-15T12:07:19.594Z,71.27
2016-03-15T12:08:19.627Z,71.27
2016-03-15T12:09:19.631Z,71.37
2016-03-15T12:10:19.649Z,71.37
2016-03-15T12:11:19.666Z,71.27
2016-03-15T12:12:19.670Z,71.27
2016-03-15T12:13:19.704Z,70.99
2016-03-15T12:14:19.721Z,71.37
2016-03-15T12:15:19.724Z,71.66
2016-03-15T12:16:19.727Z,72.41
2016-03-15T12:17:19.761Z,72.03
2016-03-15T12:18:19.763Z,71.75
2016-03-15T12:19:19.782Z,71.94
2016-03-15T12:20:19.801Z,71.75
2016-03-15T12:21:19.803Z,71.46
2016-03-15T12:22:19.821Z,70.7
2016-03-15T12:23:19.840Z,71.08
2016-03-15T12:24:19.858Z,70.61
2016-03-15T12:25:19.877Z,70.51
2016-03-15T12:26:19.895Z,70.42
2016-03-15T12:27:19.912Z,70.36
2016-03-15T12:28:19.916Z,70.42
2016-03-15T12:29:19.934Z,70.61
2016-03-15T12:30:19.952Z,70.17
2016-03-15T12:31:19.971Z,70.36
2016-03-15T12:32:19.973Z,69.98
2016-03-15T12:33:20.008Z,69.88
2016-03-15T12:34:20.025Z,69.21
2016-03-15T12:35:20.044Z,68.27
2016-03-15T12:36:20.047Z,66.87
2016-03-15T12:37:20.064Z,66.97
2016-03-15T12:38:20.083Z,66.68
2016-03-15T12:39:20.086Z,66.3
2016-03-15T12:40:20.119Z,65.58
2016-03-15T12:41:20.123Z,63.67
2016-03-15T12:42:20.188Z,62.62
2016-03-15T12:43:20.159Z,62.72
2016-03-15T12:44:20.178Z,62.24
2016-03-15T12:45:20.180Z,62.62
2016-03-15T12:46:20.260Z,62.49
2016-03-15T12:47:20.233Z,62.12
2016-03-15T12:48:20.298Z,63.17
2016-03-15T12:49:20.254Z,63.92
2016-03-15T12:50:20.272Z,64.21
2016-03-15T12:51:20.290Z,65.54
2016-03-15T12:52:20.309Z,65.45
2016-03-15T12:53:20.326Z,64.21
2016-03-15T12:54:20.329Z,64.97
2016-03-15T12:55:20.347Z,64.59